Time,TemperatureF,DewpointF,PressureIn,WindDirection,WindDirectionDegrees,WindSpeedMPH,WindSpeedGustMPH,Humidity,HourlyPrecipIn,Conditions,Clouds,dailyrainin,SoftwareType,DateUTC
2013-02-24 00:00:00,24.7,17.3,30.03,WNW,288,1.0,3.0,73,0.00,,---,0.04,VWS V14.01,2013-02-24 06:00:00,
2013-02-24 00:05:00,24.8,17.4,30.03,West,274,1.0,3.0,73,0.00,,---,0.00,VWS V14.01,2013-02-24 06:05:00,
2013-02-24 00:10:00,24.8,17.4,30.03,SSW,207,2.0,3.0,73,0.00,,---,0.00,VWS V14.01,2013-02-24 06:10:00,
2013-02-24 00:15:00,24.8,17.4,30.03,SW,232,1.0,3.0,73,0.00,,---,0.00,VWS V14.01,2013-02-24 06:15:00,
2013-02-24 00:20:00,24.8,17.4,30.02,SW,233,0.0,3.0,73,0.00,,---,0.00,VWS V14.01,2013-02-24 06:20:00,
2013-02-24 00:25:00,24.7,17.3,30.02,SW,232,0.0,3.0,73,0.00,,---,0.00,VWS V14.01,2013-02-24 06:25:00,
2013-02-24 00:30:00,24.5,17.1,30.02,SW,232,0.0,3.0,73,0.00,,---,0.00,VWS V14.01,2013-02-24 06:30:00,
2013-02-24 00:35:00,24.4,17.3,30.02,SW,233,0.0,2.0,74,0.00,,---,0.00,VWS V14.01,2013-02-24 06:35:00,
2013-02-24 00:40:00,24.4,17.3,30.02,SW,234,0.0,2.0,74,0.00,,---,0.00,VWS V14.01,2013-02-24 06:40:00,
2013-02-24 00:45:00,24.2,17.1,30.02,SW,234,0.0,2.0,74,0.00,,---,0.00,VWS V14.01,2013-02-24 06:45:00,
2013-02-24 00:50:00,24.1,17.0,30.02,SW,234,0.0,2.0,74,0.00,,---,0.00,VWS V14.01,2013-02-24 06:50:00,
2013-02-24 00:55:00,23.8,16.7,30.02,SW,234,0.0,2.0,74,0.00,,---,0.00,VWS V14.01,2013-02-24 06:55:00,
2013-02-24 01:00:00,23.6,16.5,30.02,SW,234,0.0,2.0,74,0.00,,---,0.00,VWS V14.01,2013-02-24 07:00:00,
2013-02-24 01:05:00,22.9,15.6,30.02,SW,234,0.0,0.0,73,0.00,,---,0.00,VWS V14.01,2013-02-24 07:05:00,
2013-02-24 01:10:00,22.1,14.8,30.02,SW,234,0.0,0.0,73,0.00,,---,0.00,VWS V14.01,2013-02-24 07:10:00,
2013-02-24 01:15:00,21.6,14.6,30.02,SW,234,0.0,0.0,74,0.00,,---,0.00,VWS V14.01,2013-02-24 07:15:00,
2013-02-24 01:20:00,21.6,14.6,30.03,SW,234,0.0,0.0,74,0.00,,---,0.00,VWS V14.01,2013-02-24 07:20:00,
2013-02-24 01:25:00,21.8,14.8,30.03,SW,234,0.0,0.0,74,0.00,,---,0.00,VWS V14.01,2013-02-24 07:25:00,
2013-02-24 01:30:00,21.6,14.6,30.03,SW,234,0.0,0.0,74,0.00,,---,0.00,VWS V14.01,2013-02-24 07:30:00,
2013-02-24 01:35:00,21.4,14.4,30.03,SW,234,0.0,0.0,74,0.00,,---,0.00,VWS V14.01,2013-02-24 07:35:00,
2013-02-24 01:40:00,21.1,14.1,30.03,SW,234,0.0,0.0,74,0.00,,---,0.00,VWS V14.01,2013-02-24 07:40:00,
2013-02-24 01:45:00,21.1,14.4,30.03,SW,234,0.0,0.0,75,0.00,,---,0.00,VWS V14.01,2013-02-24 07:45:00,
2013-02-24 01:50:00,21.1,14.4,30.03,SW,234,0.0,0.0,75,0.00,,---,0.00,VWS V14.01,2013-02-24 07:50:00,
2013-02-24 01:55:00,21.1,14.4,30.03,SW,234,0.0,0.0,75,0.00,,---,0.00,VWS V14.01,2013-02-24 07:55:00,
2013-02-24 02:00:00,20.8,14.1,30.03,SW,234,0.0,0.0,75,0.00,,---,0.00,VWS V14.01,2013-02-24 08:00:00,
2013-02-24 02:05:00,20.2,13.2,30.03,SW,234,0.0,0.0,74,0.00,,---,0.00,VWS V14.01,2013-02-24 08:05:00,
2013-02-24 02:10:00,19.4,12.5,30.03,SW,234,0.0,0.0,74,0.00,,---,0.00,VWS V14.01,2013-02-24 08:10:00,
2013-02-24 02:15:00,18.4,11.5,30.03,SW,234,0.0,0.0,74,0.00,,---,0.00,VWS V14.01,2013-02-24 08:15:00,
2013-02-24 02:20:00,17.5,10.6,30.03,SW,234,0.0,0.0,74,0.00,,---,0.00,VWS V14.01,2013-02-24 08:20:00,
2013-02-24 02:25:00,16.9,10.1,30.03,SW,234,0.0,0.0,74,0.00,,---,0.00,VWS V14.01,2013-02-24 08:25:00,
2013-02-24 02:30:00,16.2,9.4,30.03,SW,234,0.0,0.0,74,0.00,,---,0.00,VWS V14.01,2013-02-24 08:30:00,
2013-02-24 02:35:00,15.6,8.8,30.03,SW,234,0.0,0.0,74,0.00,,---,0.00,VWS V14.01,2013-02-24 08:35:00,
2013-02-24 02:40:00,14.9,8.1,30.03,SW,234,0.0,0.0,74,0.00,,---,0.00,VWS V14.01,2013-02-24 08:40:00,
2013-02-24 02:45:00,14.8,8.0,30.03,SW,234,0.0,0.0,74,0.00,,---,0.00,VWS V14.01,2013-02-24 08:45:00,
2013-02-24 02:50:00,14.8,8.0,30.03,SW,234,0.0,0.0,74,0.00,,---,0.00,VWS V14.01,2013-02-24 08:50:00,
2013-02-24 02:55:00,15.2,8.7,30.03,SW,234,0.0,0.0,75,0.00,,---,0.00,VWS V14.01,2013-02-24 08:55:00,
2013-02-24 03:00:00,16.1,9.9,30.03,SW,234,0.0,0.0,76,0.00,,---,0.00,VWS V14.01,2013-02-24 09:00:00,
2013-02-24 03:05:00,17.0,11.1,30.02,SW,234,0.0,0.0,77,0.00,,---,0.00,VWS V14.01,2013-02-24 09:05:00,
2013-02-24 03:10:00,18.1,12.1,30.02,SW,234,0.0,0.0,77,0.00,,---,0.00,VWS V14.01,2013-02-24 09:10:00,
2013-02-24 03:15:00,18.6,12.3,30.02,SW,234,0.0,0.0,76,0.00,,---,0.00,VWS V14.01,2013-02-24 09:15:00,
2013-02-24 03:20:00,18.8,12.5,30.02,SW,234,0.0,0.0,76,0.00,,---,0.00,VWS V14.01,2013-02-24 09:20:00,
2013-02-24 03:25:00,18.9,12.6,30.02,SW,234,0.0,0.0,76,0.00,,---,0.00,VWS V14.01,2013-02-24 09:25:00,
2013-02-24 03:30:00,18.9,12.9,30.02,SW,234,0.0,0.0,77,0.00,,---,0.00,VWS V14.01,2013-02-24 09:30:00,
2013-02-24 03:35:00,18.9,12.9,30.01,SW,234,0.0,0.0,77,0.00,,---,0.00,VWS V14.01,2013-02-24 09:35:00,
2013-02-24 03:40:00,18.8,12.8,30.01,SW,234,0.0,0.0,77,0.00,,---,0.00,VWS V14.01,2013-02-24 09:40:00,
2013-02-24 03:45:00,18.3,12.0,30.01,SW,234,0.0,0.0,76,0.00,,---,0.00,VWS V14.01,2013-02-24 09:45:00,
2013-02-24 03:50:00,17.5,11.2,30.01,SW,234,0.0,0.0,76,0.00,,---,0.00,VWS V14.01,2013-02-24 09:50:00,
2013-02-24 03:55:00,17.0,10.8,30.01,SW,234,0.0,0.0,76,0.00,,---,0.00,VWS V14.01,2013-02-24 09:55:00,
2013-02-24 04:00:00,16.5,10.3,30.01,SW,234,0.0,0.0,76,0.00,,---,0.00,VWS V14.01,2013-02-24 10:00:00,
2013-02-24 04:05:00,16.1,9.9,30.01,SW,234,0.0,0.0,76,0.00,,---,0.00,VWS V14.01,2013-02-24 10:05:00,
2013-02-24 04:10:00,15.2,9.0,30.01,SW,234,0.0,0.0,76,0.00,,---,0.00,VWS V14.01,2013-02-24 10:10:00,
2013-02-24 04:15:00,14.6,8.4,30.01,SW,234,0.0,0.0,76,0.00,,---,0.00,VWS V14.01,2013-02-24 10:15:00,
2013-02-24 04:20:00,13.8,7.4,30.01,SW,234,0.0,0.0,75,0.00,,---,0.00,VWS V14.01,2013-02-24 10:20:00,
2013-02-24 04:25:00,13.3,6.9,30.01,SW,234,0.0,0.0,75,0.00,,---,0.00,VWS V14.01,2013-02-24 10:25:00,
2013-02-24 04:30:00,13.5,7.4,30.01,SW,234,0.0,0.0,76,0.00,,---,0.00,VWS V14.01,2013-02-24 10:30:00,
2013-02-24 04:35:00,13.6,7.5,30.01,SW,234,0.0,0.0,76,0.00,,---,0.00,VWS V14.01,2013-02-24 10:35:00,
2013-02-24 04:40:00,13.1,7.0,30.01,SW,234,0.0,0.0,76,0.00,,---,0.00,VWS V14.01,2013-02-24 10:40:00,
2013-02-24 04:45:00,12.4,6.3,30.01,SW,234,0.0,0.0,76,0.00,,---,0.00,VWS V14.01,2013-02-24 10:45:00,
2013-02-24 04:50:00,12.1,6.0,30.01,SW,234,0.0,0.0,76,0.00,,---,0.00,VWS V14.01,2013-02-24 10:50:00,
2013-02-24 04:55:00,11.9,5.8,30.01,SW,234,0.0,0.0,76,0.00,,---,0.00,VWS V14.01,2013-02-24 10:55:00,
2013-02-24 05:00:00,11.4,5.0,30.01,SW,234,0.0,0.0,75,0.00,,---,0.00,VWS V14.01,2013-02-24 11:00:00,
2013-02-24 05:05:00,10.9,4.6,30.01,SW,234,0.0,0.0,75,0.00,,---,0.00,VWS V14.01,2013-02-24 11:05:00,
2013-02-24 05:10:00,10.5,4.4,30.01,SW,234,0.0,0.0,76,0.00,,---,0.00,VWS V14.01,2013-02-24 11:10:00,
2013-02-24 05:15:00,10.9,5.1,30.01,SW,234,0.0,0.0,77,0.00,,---,0.00,VWS V14.01,2013-02-24 11:15:00,
2013-02-24 05:20:00,12.1,6.6,30.02,SW,234,0.0,0.0,78,0.00,,---,0.00,VWS V14.01,2013-02-24 11:20:00,
2013-02-24 05:25:00,12.8,7.0,30.02,SW,234,0.0,0.0,77,0.00,,---,0.00,VWS V14.01,2013-02-24 11:25:00,
2013-02-24 05:30:00,12.9,7.1,30.02,SW,234,0.0,0.0,77,0.00,,---,0.00,VWS V14.01,2013-02-24 11:30:00,
2013-02-24 05:35:00,12.9,7.1,30.03,SW,234,0.0,0.0,77,0.00,,---,0.00,VWS V14.01,2013-02-24 11:35:00,
2013-02-24 05:40:00,11.9,5.8,30.03,SW,234,0.0,0.0,76,0.00,,---,0.00,VWS V14.01,2013-02-24 11:40:00,
2013-02-24 05:45:00,10.7,4.6,30.03,SW,234,0.0,0.0,76,0.00,,---,0.00,VWS V14.01,2013-02-24 11:45:00,
2013-02-24 05:50:00,10.2,4.2,30.03,SW,234,0.0,0.0,76,0.00,,---,0.00,VWS V14.01,2013-02-24 11:50:00,
2013-02-24 05:55:00,9.9,3.9,30.03,SW,234,0.0,0.0,76,0.00,,---,0.00,VWS V14.01,2013-02-24 11:55:00,
2013-02-24 06:00:00,9.7,3.7,30.03,SW,234,0.0,0.0,76,0.00,,---,0.00,VWS V14.01,2013-02-24 12:00:00,
2013-02-24 06:05:00,10.0,4.2,30.03,SW,234,0.0,0.0,77,0.00,,---,0.00,VWS V14.01,2013-02-24 12:05:00,
2013-02-24 06:10:00,10.4,4.6,30.03,SW,234,0.0,0.0,77,0.00,,---,0.00,VWS V14.01,2013-02-24 12:10:00,
2013-02-24 06:15:00,10.5,4.7,30.03,SW,234,0.0,0.0,77,0.00,,---,0.00,VWS V14.01,2013-02-24 12:15:00,
2013-02-24 06:20:00,10.7,4.9,30.02,SW,234,0.0,0.0,77,0.00,,---,0.00,VWS V14.01,2013-02-24 12:20:00,
2013-02-24 06:25:00,10.7,4.9,30.02,SW,234,0.0,0.0,77,0.00,,---,0.00,VWS V14.01,2013-02-24 12:25:00,
2013-02-24 06:30:00,10.9,5.1,30.02,SW,234,0.0,0.0,77,0.00,,---,0.00,VWS V14.01,2013-02-24 12:30:00,
2013-02-24 06:35:00,10.9,5.1,30.02,SW,234,0.0,0.0,77,0.00,,---,0.00,VWS V14.01,2013-02-24 12:35:00,
2013-02-24 06:40:00,11.2,5.4,30.02,SW,234,0.0,0.0,77,0.00,,---,0.00,VWS V14.01,2013-02-24 12:40:00,
2013-02-24 06:45:00,11.2,5.4,30.02,SW,234,0.0,0.0,77,0.00,,---,0.00,VWS V14.01,2013-02-24 12:45:00,
2013-02-24 06:50:00,11.6,6.1,30.02,SW,234,0.0,0.0,78,0.00,,---,0.00,VWS V14.01,2013-02-24 12:50:00,
2013-02-24 06:55:00,11.7,6.2,30.02,SW,234,0.0,0.0,78,0.00,,---,0.00,VWS V14.01,2013-02-24 12:55:00,
2013-02-24 07:00:00,12.3,6.8,30.02,SSW,192,0.0,0.0,78,0.00,,---,0.00,VWS V14.01,2013-02-24 13:00:00,
2013-02-24 07:05:00,12.6,7.1,30.03,SSW,192,0.0,0.0,78,0.00,,---,0.00,VWS V14.01,2013-02-24 13:05:00,
2013-02-24 07:10:00,12.4,6.9,30.03,SSW,192,0.0,0.0,78,0.00,,---,0.00,VWS V14.01,2013-02-24 13:10:00,
2013-02-24 07:15:00,12.6,7.1,30.03,SSW,192,0.0,0.0,78,0.00,,---,0.00,VWS V14.01,2013-02-24 13:15:00,
2013-02-24 07:20:00,12.4,6.9,30.03,SSW,192,0.0,0.0,78,0.00,,---,0.00,VWS V14.01,2013-02-24 13:20:00,
2013-02-24 07:25:00,12.1,6.6,30.03,SSW,192,0.0,0.0,78,0.00,,---,0.00,VWS V14.01,2013-02-24 13:25:00,
2013-02-24 07:30:00,12.1,6.6,30.03,SSW,192,0.0,0.0,78,0.00,,---,0.00,VWS V14.01,2013-02-24 13:30:00,
2013-02-24 07:35:00,12.4,6.9,30.03,SSW,192,0.0,0.0,78,0.00,,---,0.00,VWS V14.01,2013-02-24 13:35:00,
2013-02-24 07:40:00,12.8,7.2,30.03,SSW,192,0.0,0.0,78,0.00,,---,0.00,VWS V14.01,2013-02-24 13:40:00,
2013-02-24 07:45:00,12.8,7.2,30.03,SSW,192,0.0,0.0,78,0.00,,---,0.00,VWS V14.01,2013-02-24 13:45:00,
2013-02-24 07:50:00,13.5,8.5,30.03,SSW,192,0.0,0.0,80,0.00,,---,0.00,VWS V14.01,2013-02-24 13:50:00,
2013-02-24 07:55:00,14.9,10.1,30.03,SSW,192,0.0,0.0,81,0.00,,---,0.00,VWS V14.01,2013-02-24 13:55:00,
2013-02-24 08:00:00,16.5,11.7,30.03,SSW,192,0.0,0.0,81,0.00,,---,0.00,VWS V14.01,2013-02-24 14:00:00,
2013-02-24 08:05:00,17.8,13.0,30.04,SSW,192,0.0,0.0,81,0.00,,---,0.00,VWS V14.01,2013-02-24 14:05:00,
2013-02-24 08:10:00,18.9,14.0,30.04,South,191,0.0,0.0,81,0.00,,---,0.00,VWS V14.01,2013-02-24 14:10:00,
2013-02-24 08:15:00,19.9,15.3,30.04,South,191,0.0,0.0,82,0.00,,---,0.00,VWS V14.01,2013-02-24 14:15:00,
2013-02-24 08:20:00,20.8,16.2,30.05,South,191,0.0,0.0,82,0.00,,---,0.00,VWS V14.01,2013-02-24 14:20:00,
2013-02-24 08:25:00,21.9,17.3,30.05,South,191,0.0,0.0,82,0.00,,---,0.00,VWS V14.01,2013-02-24 14:25:00,
2013-02-24 08:30:00,22.9,18.2,30.05,South,191,0.0,0.0,82,0.00,,---,0.00,VWS V14.01,2013-02-24 14:30:00,
2013-02-24 08:35:00,23.6,18.9,30.05,South,191,1.0,1.0,82,0.00,,---,0.00,VWS V14.01,2013-02-24 14:35:00,
2013-02-24 08:40:00,24.2,19.5,30.05,SSE,167,0.0,2.0,82,0.00,,---,0.00,VWS V14.01,2013-02-24 14:40:00,
2013-02-24 08:45:00,25.0,20.0,30.05,SSE,167,2.0,2.0,81,0.00,,---,0.00,VWS V14.01,2013-02-24 14:45:00,
2013-02-24 08:50:00,25.6,20.6,30.06,SE,127,0.0,2.0,81,0.00,,---,0.00,VWS V14.01,2013-02-24 14:50:00,
2013-02-24 08:55:00,26.4,21.4,30.06,SE,126,0.0,2.0,81,0.00,,---,0.00,VWS V14.01,2013-02-24 14:55:00,
2013-02-24 09:00:00,27.2,22.1,30.06,SE,127,0.0,2.0,81,0.00,,---,0.00,VWS V14.01,2013-02-24 15:00:00,
2013-02-24 09:05:00,28.1,22.7,30.06,SE,126,0.0,2.0,80,0.00,,---,0.00,VWS V14.01,2013-02-24 15:05:00,
2013-02-24 09:10:00,28.7,23.3,30.06,ESE,109,2.0,2.0,80,0.00,,---,0.00,VWS V14.01,2013-02-24 15:10:00,
2013-02-24 09:15:00,29.3,23.6,30.06,ESE,109,0.0,2.0,79,0.00,,---,0.00,VWS V14.01,2013-02-24 15:15:00,
2013-02-24 09:20:00,29.8,24.1,30.06,ESE,109,0.0,2.0,79,0.00,,---,0.00,VWS V14.01,2013-02-24 15:20:00,
2013-02-24 09:25:00,30.6,24.6,30.06,SE,130,2.0,3.0,78,0.00,,---,0.00,VWS V14.01,2013-02-24 15:25:00,
2013-02-24 09:30:00,31.2,25.1,30.06,SE,138,0.0,3.0,78,0.00,,---,0.00,VWS V14.01,2013-02-24 15:30:00,
2013-02-24 09:35:00,31.6,25.5,30.06,ESE,107,1.0,3.0,78,0.00,,---,0.00,VWS V14.01,2013-02-24 15:35:00,
2013-02-24 09:40:00,32.2,25.8,30.06,SE,130,0.0,4.0,77,0.00,,---,0.00,VWS V14.01,2013-02-24 15:40:00,
2013-02-24 09:45:00,32.9,26.5,30.06,SE,140,4.0,4.0,77,0.00,,---,0.00,VWS V14.01,2013-02-24 15:45:00,
2013-02-24 09:50:00,33.4,26.7,30.06,SSE,148,2.0,6.0,76,0.00,,---,0.00,VWS V14.01,2013-02-24 15:50:00,
2013-02-24 09:55:00,34.0,26.9,30.06,East,85,6.0,6.0,75,0.00,,---,0.00,VWS V14.01,2013-02-24 15:55:00,
2013-02-24 10:00:00,34.4,27.0,30.06,ESE,107,2.0,6.0,74,0.00,,---,0.00,VWS V14.01,2013-02-24 16:00:00,
2013-02-24 10:05:00,34.7,27.0,30.06,SE,134,3.0,6.0,73,0.00,,---,0.00,VWS V14.01,2013-02-24 16:05:00,
2013-02-24 10:10:00,35.0,27.2,30.06,SE,145,1.0,7.0,73,0.00,,---,0.00,VWS V14.01,2013-02-24 16:10:00,
2013-02-24 10:15:00,35.5,27.7,30.06,SSE,155,2.0,7.0,73,0.00,,---,0.00,VWS V14.01,2013-02-24 16:15:00,
2013-02-24 10:20:00,35.9,27.8,30.05,East,94,0.0,7.0,72,0.00,,---,0.00,VWS V14.01,2013-02-24 16:20:00,
2013-02-24 10:25:00,36.5,28.4,30.05,SSE,154,2.0,7.0,72,0.00,,---,0.00,VWS V14.01,2013-02-24 16:25:00,
2013-02-24 10:30:00,36.9,28.4,30.05,SE,134,4.0,7.0,71,0.00,,---,0.00,VWS V14.01,2013-02-24 16:30:00,
2013-02-24 10:35:00,37.3,28.4,30.05,ESE,109,1.0,5.0,70,0.00,,---,0.00,VWS V14.01,2013-02-24 16:35:00,
2013-02-24 10:40:00,37.6,28.7,30.05,SE,138,1.0,6.0,70,0.00,,---,0.00,VWS V14.01,2013-02-24 16:40:00,
2013-02-24 10:45:00,37.8,28.6,30.05,ESE,117,2.0,7.0,69,0.00,,---,0.00,VWS V14.01,2013-02-24 16:45:00,
2013-02-24 10:50:00,38.0,28.8,30.05,SE,124,0.0,7.0,69,0.00,,---,0.00,VWS V14.01,2013-02-24 16:50:00,
2013-02-24 10:55:00,38.2,28.6,30.05,ESE,108,1.0,8.0,68,0.00,,---,0.00,VWS V14.01,2013-02-24 16:55:00,
2013-02-24 11:00:00,38.6,29.0,30.05,ESE,121,0.0,8.0,68,0.00,,---,0.00,VWS V14.01,2013-02-24 17:00:00,
2013-02-24 11:05:00,39.2,29.5,30.06,East,96,3.0,4.0,68,0.00,,---,0.00,VWS V14.01,2013-02-24 17:05:00,
2013-02-24 11:10:00,39.3,29.3,30.06,East,90,0.0,4.0,67,0.00,,---,0.00,VWS V14.01,2013-02-24 17:10:00,
2013-02-24 11:15:00,39.6,29.6,30.06,ESE,113,0.0,4.0,67,0.00,,---,0.00,VWS V14.01,2013-02-24 17:15:00,
2013-02-24 11:20:00,39.9,29.5,30.05,ESE,112,0.0,4.0,66,0.00,,---,0.00,VWS V14.01,2013-02-24 17:20:00,
2013-02-24 11:25:00,40.2,29.8,30.05,ENE,74,0.0,5.0,66,0.00,,---,0.00,VWS V14.01,2013-02-24 17:25:00,
2013-02-24 11:30:00,40.2,29.8,30.05,East,81,2.0,5.0,66,0.00,,---,0.00,VWS V14.01,2013-02-24 17:30:00,
2013-02-24 11:35:00,40.3,29.5,30.05,SE,140,2.0,2.0,65,0.00,,---,0.00,VWS V14.01,2013-02-24 17:35:00,
2013-02-24 11:45:00,41.3,30.1,30.05,East,101,0.0,0.0,64,0.00,,---,0.00,VWS V14.01,2013-02-24 17:45:00,
2013-02-24 11:50:00,41.3,30.1,30.05,ESE,111,0.0,3.0,64,0.00,,---,0.00,VWS V14.01,2013-02-24 17:50:00,
2013-02-24 11:55:00,41.5,30.2,30.05,ESE,106,1.0,6.0,64,0.00,,---,0.00,VWS V14.01,2013-02-24 17:55:00,
2013-02-24 12:00:00,41.8,30.5,30.05,ESE,110,0.0,6.0,64,0.00,,---,0.00,VWS V14.01,2013-02-24 18:00:00,
2013-02-24 12:05:00,42.2,30.5,30.05,ESE,123,0.0,4.0,63,0.00,,---,0.00,VWS V14.01,2013-02-24 18:05:00,
2013-02-24 12:10:00,42.6,30.9,30.05,ESE,118,1.0,4.0,63,0.00,,---,0.00,VWS V14.01,2013-02-24 18:10:00,
2013-02-24 12:15:00,42.5,30.8,30.05,ESE,103,4.0,4.0,63,0.00,,---,0.00,VWS V14.01,2013-02-24 18:15:00,
2013-02-24 12:20:00,42.6,30.5,30.04,SE,137,0.0,4.0,62,0.00,,---,0.00,VWS V14.01,2013-02-24 18:20:00,
2013-02-24 12:25:00,43.2,31.1,30.04,ESE,103,1.0,4.0,62,0.00,,---,0.00,VWS V14.01,2013-02-24 18:25:00,
2013-02-24 12:30:00,43.5,31.4,30.04,ESE,113,1.0,7.0,62,0.00,,---,0.00,VWS V14.01,2013-02-24 18:30:00,
2013-02-24 12:35:00,43.5,31.0,30.04,ESE,111,1.0,2.0,61,0.00,,---,0.00,VWS V14.01,2013-02-24 18:35:00,
2013-02-24 12:40:00,43.2,30.7,30.04,SE,129,0.0,6.0,61,0.00,,---,0.00,VWS V14.01,2013-02-24 18:40:00,
2013-02-24 12:45:00,43.2,30.7,30.04,ENE,78,3.0,6.0,61,0.00,,---,0.00,VWS V14.01,2013-02-24 18:45:00,
2013-02-24 12:50:00,43.3,30.4,30.02,ENE,68,2.0,6.0,60,0.00,,---,0.00,VWS V14.01,2013-02-24 18:50:00,
2013-02-24 12:55:00,43.5,30.5,30.02,ENE,67,2.0,6.0,60,0.00,,---,0.00,VWS V14.01,2013-02-24 18:55:00,
2013-02-24 13:00:00,43.5,30.5,30.02,East,84,1.0,6.0,60,0.00,,---,0.00,VWS V14.01,2013-02-24 19:00:00,
2013-02-24 13:05:00,43.8,30.8,30.02,ESE,103,1.0,3.0,60,0.00,,---,0.00,VWS V14.01,2013-02-24 19:05:00,
2013-02-24 13:10:00,43.9,30.9,30.02,ESE,106,1.0,3.0,60,0.00,,---,0.00,VWS V14.01,2013-02-24 19:10:00,
2013-02-24 13:15:00,44.2,30.8,30.02,East,86,5.0,5.0,59,0.00,,---,0.00,VWS V14.01,2013-02-24 19:15:00,
2013-02-24 13:20:00,43.9,30.5,30.01,ESE,109,1.0,7.0,59,0.00,,---,0.00,VWS V14.01,2013-02-24 19:20:00,
2013-02-24 13:25:00,44.1,30.7,30.01,ENE,78,3.0,7.0,59,0.00,,---,0.00,VWS V14.01,2013-02-24 19:25:00,
2013-02-24 13:30:00,44.2,30.8,30.01,ESE,111,1.0,7.0,59,0.00,,---,0.00,VWS V14.01,2013-02-24 19:30:00,
2013-02-24 13:35:00,44.3,30.9,30.00,East,94,0.0,5.0,59,0.00,,---,0.00,VWS V14.01,2013-02-24 19:35:00,
2013-02-24 13:40:00,44.6,31.2,30.00,East,86,0.0,5.0,59,0.00,,---,0.00,VWS V14.01,2013-02-24 19:40:00,
2013-02-24 13:45:00,44.9,31.0,30.00,ESE,103,2.0,5.0,58,0.00,,---,0.00,VWS V14.01,2013-02-24 19:45:00,
2013-02-24 13:50:00,45.2,31.3,29.99,ESE,115,2.0,5.0,58,0.00,,---,0.00,VWS V14.01,2013-02-24 19:50:00,
2013-02-24 13:55:00,45.4,31.5,29.99,ENE,75,2.0,5.0,58,0.00,,---,0.00,VWS V14.01,2013-02-24 19:55:00,
2013-02-24 14:00:00,44.9,30.6,29.99,ENE,73,2.0,5.0,57,0.00,,---,0.00,VWS V14.01,2013-02-24 20:00:00,
2013-02-24 14:05:00,44.6,30.3,29.98,ESE,103,0.0,6.0,57,0.00,,---,0.00,VWS V14.01,2013-02-24 20:05:00,
2013-02-24 14:10:00,44.9,30.6,29.98,East,84,1.0,6.0,57,0.00,,---,0.00,VWS V14.01,2013-02-24 20:10:00,
2013-02-24 14:15:00,44.9,30.6,29.98,East,93,2.0,7.0,57,0.00,,---,0.00,VWS V14.01,2013-02-24 20:15:00,
2013-02-24 14:20:00,44.8,30.5,29.98,SE,141,1.0,7.0,57,0.00,,---,0.00,VWS V14.01,2013-02-24 20:20:00,
2013-02-24 14:25:00,44.6,29.9,29.98,ESE,104,3.0,7.0,56,0.00,,---,0.00,VWS V14.01,2013-02-24 20:25:00,
2013-02-24 14:30:00,44.6,29.9,29.98,East,92,3.0,7.0,56,0.00,,---,0.00,VWS V14.01,2013-02-24 20:30:00,
2013-02-24 14:35:00,44.3,29.6,29.97,East,80,0.0,6.0,56,0.00,,---,0.00,VWS V14.01,2013-02-24 20:35:00,
2013-02-24 14:40:00,44.3,29.6,29.97,East,101,0.0,6.0,56,0.00,,---,0.00,VWS V14.01,2013-02-24 20:40:00,
2013-02-24 14:45:00,44.3,29.6,29.97,NE,42,3.0,6.0,56,0.00,,---,0.00,VWS V14.01,2013-02-24 20:45:00,
2013-02-24 14:50:00,44.2,29.5,29.96,East,98,1.0,6.0,56,0.00,,---,0.00,VWS V14.01,2013-02-24 20:50:00,
2013-02-24 14:55:00,44.2,29.5,29.96,East,86,0.0,6.0,56,0.00,,---,0.00,VWS V14.01,2013-02-24 20:55:00,
2013-02-24 15:00:00,44.1,29.4,29.96,East,97,1.0,6.0,56,0.00,,---,0.00,VWS V14.01,2013-02-24 21:00:00,
2013-02-24 15:05:00,44.1,29.4,29.96,ENE,71,2.0,5.0,56,0.00,,---,0.00,VWS V14.01,2013-02-24 21:05:00,
2013-02-24 15:10:00,43.9,29.2,29.96,ESE,103,4.0,5.0,56,0.00,,---,0.00,VWS V14.01,2013-02-24 21:10:00,
2013-02-24 15:15:00,44.1,29.4,29.96,ESE,107,1.0,5.0,56,0.00,,---,0.00,VWS V14.01,2013-02-24 21:15:00,
2013-02-24 15:20:00,44.2,29.5,29.95,East,96,0.0,5.0,56,0.00,,---,0.00,VWS V14.01,2013-02-24 21:20:00,
2013-02-24 15:25:00,44.3,29.2,29.95,ENE,69,0.0,5.0,55,0.00,,---,0.00,VWS V14.01,2013-02-24 21:25:00,
2013-02-24 15:30:00,44.3,29.2,29.95,ENE,76,4.0,7.0,55,0.00,,---,0.00,VWS V14.01,2013-02-24 21:30:00,
2013-02-24 15:35:00,44.3,29.2,29.95,NE,41,7.0,7.0,55,0.00,,---,0.00,VWS V14.01,2013-02-24 21:35:00,
2013-02-24 15:40:00,44.2,29.1,29.95,ESE,109,3.0,7.0,55,0.00,,---,0.00,VWS V14.01,2013-02-24 21:40:00,
2013-02-24 15:45:00,44.1,29.0,29.95,East,94,3.0,7.0,55,0.00,,---,0.00,VWS V14.01,2013-02-24 21:45:00,
2013-02-24 15:50:00,44.1,29.0,29.95,ENE,74,4.0,7.0,55,0.00,,---,0.00,VWS V14.01,2013-02-24 21:50:00,
2013-02-24 15:55:00,43.9,28.8,29.95,East,90,1.0,7.0,55,0.00,,---,0.00,VWS V14.01,2013-02-24 21:55:00,
2013-02-24 16:00:00,43.9,28.8,29.95,East,94,2.0,7.0,55,0.00,,---,0.00,VWS V14.01,2013-02-24 22:00:00,
2013-02-24 16:05:00,43.9,28.8,29.95,ENE,76,3.0,7.0,55,0.00,,---,0.00,VWS V14.01,2013-02-24 22:05:00,
2013-02-24 16:10:00,43.8,28.7,29.95,SE,140,2.0,7.0,55,0.00,,---,0.00,VWS V14.01,2013-02-24 22:10:00,
2013-02-24 16:15:00,43.8,28.7,29.95,ESE,115,3.0,7.0,55,0.00,,---,0.00,VWS V14.01,2013-02-24 22:15:00,
2013-02-24 16:20:00,43.8,28.7,29.95,NE,51,3.0,7.0,55,0.00,,---,0.00,VWS V14.01,2013-02-24 22:20:00,
2013-02-24 16:25:00,43.6,28.5,29.95,East,93,6.0,8.0,55,0.00,,---,0.00,VWS V14.01,2013-02-24 22:25:00,
2013-02-24 16:30:00,43.5,28.4,29.95,ESE,109,1.0,10.0,55,0.00,,---,0.00,VWS V14.01,2013-02-24 22:30:00,
2013-02-24 16:35:00,43.5,28.4,29.95,East,84,5.0,8.0,55,0.00,,---,0.00,VWS V14.01,2013-02-24 22:35:00,
2013-02-24 16:40:00,43.5,28.4,29.95,ESE,106,5.0,8.0,55,0.00,,---,0.00,VWS V14.01,2013-02-24 22:40:00,
2013-02-24 16:45:00,43.3,28.2,29.95,ENE,72,2.0,8.0,55,0.00,,---,0.00,VWS V14.01,2013-02-24 22:45:00,
2013-02-24 16:50:00,43.2,28.1,29.94,East,79,5.0,10.0,55,0.00,,---,0.00,VWS V14.01,2013-02-24 22:50:00,
2013-02-24 16:55:00,43.1,28.0,29.94,East,89,5.0,10.0,55,0.00,,---,0.00,VWS V14.01,2013-02-24 22:55:00,
2013-02-24 17:00:00,42.9,28.3,29.94,ENE,69,0.0,10.0,56,0.00,,---,0.00,VWS V14.01,2013-02-24 23:00:00,
2013-02-24 17:05:00,42.8,28.2,29.94,East,83,1.0,6.0,56,0.00,,---,0.00,VWS V14.01,2013-02-24 23:05:00,
2013-02-24 17:10:00,42.6,28.0,29.94,East,88,5.0,6.0,56,0.00,,---,0.00,VWS V14.01,2013-02-24 23:10:00,
2013-02-24 17:15:00,42.5,27.9,29.94,ENE,60,5.0,10.0,56,0.00,,---,0.00,VWS V14.01,2013-02-24 23:15:00,
2013-02-24 17:20:00,42.2,27.6,29.93,ENE,70,2.0,10.0,56,0.00,,---,0.00,VWS V14.01,2013-02-24 23:20:00,
2013-02-24 17:25:00,41.9,27.4,29.93,ENE,69,2.0,10.0,56,0.00,,---,0.00,VWS V14.01,2013-02-24 23:25:00,
2013-02-24 17:30:00,41.8,27.3,29.93,East,80,5.0,12.0,56,0.00,,---,0.00,VWS V14.01,2013-02-24 23:30:00,
2013-02-24 17:35:00,41.5,27.0,29.94,East,82,2.0,7.0,56,0.00,,---,0.00,VWS V14.01,2013-02-24 23:35:00,
2013-02-24 17:40:00,41.2,26.7,29.94,ENE,74,3.0,7.0,56,0.00,,---,0.00,VWS V14.01,2013-02-24 23:40:00,
2013-02-24 17:45:00,41.1,26.6,29.94,East,82,1.0,7.0,56,0.00,,---,0.00,VWS V14.01,2013-02-24 23:45:00,
2013-02-24 17:50:00,40.9,26.4,29.95,ENE,66,0.0,7.0,56,0.00,,---,0.00,VWS V14.01,2013-02-24 23:50:00,
2013-02-24 17:55:00,40.8,26.3,29.95,ENE,67,1.0,7.0,56,0.00,,---,0.00,VWS V14.01,2013-02-24 23:55:00,
2013-02-24 18:00:00,40.5,26.0,29.95,NE,49,2.0,7.0,56,0.00,,---,0.00,VWS V14.01,2013-02-25 00:00:00,
2013-02-24 18:05:00,40.2,26.2,29.95,ENE,69,3.0,5.0,57,0.00,,---,0.00,VWS V14.01,2013-02-25 00:05:00,
2013-02-24 18:10:00,40.1,26.1,29.95,ENE,71,1.0,5.0,57,0.00,,---,0.00,VWS V14.01,2013-02-25 00:10:00,
2013-02-24 18:15:00,39.8,25.8,29.95,NE,54,2.0,6.0,57,0.00,,---,0.00,VWS V14.01,2013-02-25 00:15:00,
2013-02-24 18:20:00,39.5,25.5,29.95,NE,53,1.0,6.0,57,0.00,,---,0.00,VWS V14.01,2013-02-25 00:20:00,
2013-02-24 18:25:00,39.3,25.4,29.95,NE,53,4.0,6.0,57,0.00,,---,0.00,VWS V14.01,2013-02-25 00:25:00,
2013-02-24 18:30:00,39.3,25.8,29.95,NE,49,5.0,6.0,58,0.00,,---,0.00,VWS V14.01,2013-02-25 00:30:00,
2013-02-24 18:35:00,39.2,25.7,29.96,ENE,61,2.0,3.0,58,0.00,,---,0.00,VWS V14.01,2013-02-25 00:35:00,
2013-02-24 18:40:00,39.1,25.6,29.96,NE,49,1.0,6.0,58,0.00,,---,0.00,VWS V14.01,2013-02-25 00:40:00,
2013-02-24 18:45:00,38.8,25.3,29.96,NE,48,1.0,6.0,58,0.00,,---,0.00,VWS V14.01,2013-02-25 00:45:00,
2013-02-24 18:50:00,38.6,25.1,29.96,ENE,57,5.0,6.0,58,0.00,,---,0.00,VWS V14.01,2013-02-25 00:50:00,
2013-02-24 18:55:00,38.5,25.0,29.96,NE,44,5.0,7.0,58,0.00,,---,0.00,VWS V14.01,2013-02-25 00:55:00,
2013-02-24 19:00:00,38.3,25.2,29.96,NE,41,3.0,7.0,59,0.00,,---,0.00,VWS V14.01,2013-02-25 01:00:00,
2013-02-24 19:05:00,38.0,25.0,29.97,NE,48,2.0,6.0,59,0.00,,---,0.00,VWS V14.01,2013-02-25 01:05:00,
2013-02-24 19:10:00,37.9,24.9,29.97,NE,56,4.0,6.0,59,0.00,,---,0.00,VWS V14.01,2013-02-25 01:10:00,
2013-02-24 19:15:00,37.6,24.6,29.97,NE,50,2.0,6.0,59,0.00,,---,0.00,VWS V14.01,2013-02-25 01:15:00,
2013-02-24 19:20:00,37.5,24.5,29.97,NE,42,3.0,6.0,59,0.00,,---,0.00,VWS V14.01,2013-02-25 01:20:00,
2013-02-24 19:25:00,37.2,24.2,29.97,NE,54,6.0,7.0,59,0.00,,---,0.00,VWS V14.01,2013-02-25 01:25:00,
2013-02-24 19:30:00,37.2,24.2,29.97,NE,39,4.0,8.0,59,0.00,,---,0.00,VWS V14.01,2013-02-25 01:30:00,
2013-02-24 19:35:00,37.0,24.4,29.97,North,360,5.0,7.0,60,0.00,,---,0.00,VWS V14.01,2013-02-25 01:35:00,
2013-02-24 19:40:00,36.9,24.3,29.97,NE,49,3.0,7.0,60,0.00,,---,0.00,VWS V14.01,2013-02-25 01:40:00,
2013-02-24 19:45:00,36.8,24.2,29.97,NE,54,2.0,7.0,60,0.00,,---,0.00,VWS V14.01,2013-02-25 01:45:00,
2013-02-24 19:50:00,36.6,24.0,29.97,NE,34,6.0,7.0,60,0.00,,---,0.00,VWS V14.01,2013-02-25 01:50:00,
2013-02-24 19:55:00,36.5,24.0,29.97,NE,53,3.0,7.0,60,0.00,,---,0.00,VWS V14.01,2013-02-25 01:55:00,
2013-02-24 20:00:00,36.5,24.3,29.97,ENE,57,2.0,7.0,61,0.00,,---,0.00,VWS V14.01,2013-02-25 02:00:00,
2013-02-24 20:05:00,36.3,24.1,29.97,NE,51,5.0,8.0,61,0.00,,---,0.00,VWS V14.01,2013-02-25 02:05:00,
2013-02-24 20:10:00,36.2,24.1,29.97,NNE,28,3.0,8.0,61,0.00,,---,0.00,VWS V14.01,2013-02-25 02:10:00,
2013-02-24 20:15:00,36.2,24.1,29.97,ENE,71,3.0,9.0,61,0.00,,---,0.00,VWS V14.01,2013-02-25 02:15:00,
2013-02-24 20:20:00,36.0,23.9,29.97,NE,50,5.0,9.0,61,0.00,,---,0.00,VWS V14.01,2013-02-25 02:20:00,
2013-02-24 20:25:00,35.9,23.8,29.97,NE,46,3.0,9.0,61,0.00,,---,0.00,VWS V14.01,2013-02-25 02:25:00,
2013-02-24 20:30:00,35.8,23.7,29.97,NE,49,5.0,9.0,61,0.00,,---,0.00,VWS V14.01,2013-02-25 02:30:00,
2013-02-24 20:35:00,35.5,23.8,29.98,NE,53,4.0,8.0,62,0.00,,---,0.00,VWS V14.01,2013-02-25 02:35:00,
2013-02-24 20:40:00,35.5,23.8,29.98,NE,48,6.0,8.0,62,0.00,,---,0.00,VWS V14.01,2013-02-25 02:40:00,
2013-02-24 20:45:00,35.5,23.8,29.98,NE,52,6.0,10.0,62,0.00,,---,0.00,VWS V14.01,2013-02-25 02:45:00,
2013-02-24 20:50:00,35.3,23.6,29.98,NE,37,3.0,10.0,62,0.00,,---,0.00,VWS V14.01,2013-02-25 02:50:00,
2013-02-24 20:55:00,35.2,23.5,29.98,ENE,70,3.0,10.0,62,0.00,,---,0.00,VWS V14.01,2013-02-25 02:55:00,
2013-02-24 21:00:00,35.0,23.3,29.98,NE,42,5.0,10.0,62,0.00,,---,0.00,VWS V14.01,2013-02-25 03:00:00,
2013-02-24 21:05:00,35.0,23.7,29.98,ENE,70,2.0,5.0,63,0.00,,---,0.00,VWS V14.01,2013-02-25 03:05:00,
2013-02-24 21:10:00,35.0,23.7,29.98,NE,50,4.0,8.0,63,0.00,,---,0.00,VWS V14.01,2013-02-25 03:10:00,
2013-02-24 21:15:00,35.0,23.7,29.98,NE,40,2.0,8.0,63,0.00,,---,0.00,VWS V14.01,2013-02-25 03:15:00,
2013-02-24 21:20:00,34.7,23.4,29.99,NE,56,0.0,8.0,63,0.00,,---,0.00,VWS V14.01,2013-02-25 03:20:00,
2013-02-24 21:25:00,34.6,23.3,29.99,ENE,63,2.0,8.0,63,0.00,,---,0.00,VWS V14.01,2013-02-25 03:25:00,
2013-02-24 21:30:00,34.4,23.1,29.99,East,87,1.0,8.0,63,0.00,,---,0.00,VWS V14.01,2013-02-25 03:30:00,
2013-02-24 21:35:00,34.4,23.1,30.00,NE,46,2.0,4.0,63,0.00,,---,0.00,VWS V14.01,2013-02-25 03:35:00,
2013-02-24 21:40:00,34.4,23.1,30.00,NE,38,1.0,6.0,63,0.00,,---,0.00,VWS V14.01,2013-02-25 03:40:00,
2013-02-24 21:45:00,34.4,23.1,30.00,NE,38,0.0,6.0,63,0.00,,---,0.00,VWS V14.01,2013-02-25 03:45:00,
2013-02-24 21:50:00,34.4,23.1,30.00,NE,38,1.0,6.0,63,0.00,,---,0.00,VWS V14.01,2013-02-25 03:50:00,
2013-02-24 21:55:00,34.3,23.4,30.00,NE,55,4.0,6.0,64,0.00,,---,0.00,VWS V14.01,2013-02-25 03:55:00,
2013-02-24 22:00:00,34.4,23.5,30.00,NE,55,1.0,6.0,64,0.00,,---,0.00,VWS V14.01,2013-02-25 04:00:00,
2013-02-24 22:05:00,34.4,23.5,30.01,NE,56,2.0,5.0,64,0.00,,---,0.00,VWS V14.01,2013-02-25 04:05:00,
2013-02-24 22:10:00,34.6,23.7,30.01,ENE,57,1.0,6.0,64,0.00,,---,0.00,VWS V14.01,2013-02-25 04:10:00,
2013-02-24 22:15:00,34.6,23.7,30.01,NE,55,3.0,6.0,64,0.00,,---,0.00,VWS V14.01,2013-02-25 04:15:00,
2013-02-24 22:20:00,34.7,23.8,30.01,ENE,60,4.0,6.0,64,0.00,,---,0.00,VWS V14.01,2013-02-25 04:20:00,
2013-02-24 22:25:00,34.7,23.8,30.01,NE,44,2.0,8.0,64,0.00,,---,0.00,VWS V14.01,2013-02-25 04:25:00,
2013-02-24 22:30:00,34.7,23.8,30.01,NE,39,7.0,8.0,64,0.00,,---,0.00,VWS V14.01,2013-02-25 04:30:00,
2013-02-24 22:35:00,34.7,23.8,30.01,NE,46,3.0,6.0,64,0.00,,---,0.00,VWS V14.01,2013-02-25 04:35:00,
2013-02-24 22:40:00,34.9,24.0,30.01,NE,45,4.0,9.0,64,0.00,,---,0.00,VWS V14.01,2013-02-25 04:40:00,
2013-02-24 22:45:00,34.9,24.0,30.01,ENE,62,4.0,9.0,64,0.00,,---,0.00,VWS V14.01,2013-02-25 04:45:00,
2013-02-24 22:50:00,35.0,24.1,30.00,NE,48,3.0,9.0,64,0.00,,---,0.00,VWS V14.01,2013-02-25 04:50:00,
2013-02-24 22:55:00,35.2,24.3,30.00,East,84,6.0,9.0,64,0.00,,---,0.00,VWS V14.01,2013-02-25 04:55:00,
2013-02-24 23:00:00,35.2,24.3,30.00,NE,49,5.0,9.0,64,0.00,,---,0.00,VWS V14.01,2013-02-25 05:00:00,
2013-02-24 23:05:00,35.2,24.3,29.99,East,80,3.0,6.0,64,0.00,,---,0.00,VWS V14.01,2013-02-25 05:05:00,
2013-02-24 23:10:00,35.2,24.3,29.99,NE,51,3.0,8.0,64,0.00,,---,0.00,VWS V14.01,2013-02-25 05:10:00,
2013-02-24 23:15:00,35.0,24.1,29.99,ENE,64,2.0,8.0,64,0.00,,---,0.00,VWS V14.01,2013-02-25 05:15:00,
2013-02-24 23:20:00,35.0,24.1,29.99,NE,38,4.0,8.0,64,0.00,,---,0.00,VWS V14.01,2013-02-25 05:20:00,
2013-02-24 23:25:00,34.9,24.0,29.99,ENE,74,2.0,8.0,64,0.00,,---,0.00,VWS V14.01,2013-02-25 05:25:00,
2013-02-24 23:30:00,34.7,23.8,29.99,ENE,61,2.0,8.0,64,0.00,,---,0.00,VWS V14.01,2013-02-25 05:30:00,
2013-02-24 23:35:00,34.6,23.7,29.99,NE,51,3.0,5.0,64,0.00,,---,0.00,VWS V14.01,2013-02-25 05:35:00,
2013-02-24 23:40:00,34.4,23.5,29.99,NE,38,2.0,6.0,64,0.00,,---,0.00,VWS V14.01,2013-02-25 05:40:00,
2013-02-24 23:45:00,34.3,23.4,29.99,ENE,72,7.0,7.0,64,0.00,,---,0.00,VWS V14.01,2013-02-25 05:45:00,
2013-02-24 23:50:00,34.1,23.2,29.98,ENE,69,1.0,7.0,64,0.00,,---,0.00,VWS V14.01,2013-02-25 05:50:00,
2013-02-24 23:55:00,34.0,23.1,29.98,East,88,1.0,7.0,64,0.00,,---,0.00,VWS V14.01,2013-02-25 05:55:00,